Time;durP1;ratioP1;P1;durP2;ratioP2;P2;SDS_P1;SDS_P2;PMS_P1;PMS_P2;Temp;Humidity;BMP_temperature;BMP_pressure;BME280_temperature;BME280_humidity;BME280_pressure;Samples;Min_cycle;Max_cycle;Signal;HPM_P1;HPM_P2
2022/07/05 00:00:50;;;;;;;4.80;1.20;;;;;;;17.45;61.50;101725.63;5065750;28;20575;-62
2022/07/05 00:03:18;;;;;;;8.93;1.65;;;;;;;17.55;60.98;101721.69;5086647;28;20052;-61
2022/07/05 00:05:45;;;;;;;5.15;1.13;;;;;;;16.94;62.44;101720.28;5060420;28;20048;-61
2022/07/05 00:08:12;;;;;;;3.67;1.45;;;;;;;17.02;62.73;101729.75;5074455;28;20376;-62
2022/07/05 00:10:40;;;;;;;6.05;1.58;;;;;;;17.04;62.83;101724.66;5057026;28;20060;-62
2022/07/05 00:13:07;;;;;;;6.03;1.30;;;;;;;17.04;62.89;101725.47;5064137;28;20052;-62
2022/07/05 00:15:35;;;;;;;3.65;1.25;;;;;;;17.42;61.83;101726.31;5073209;28;20545;-61
2022/07/05 00:18:03;;;;;;;5.07;1.20;;;;;;;17.04;62.43;101725.47;5075359;28;20040;-61
2022/07/05 00:20:30;;;;;;;3.78;1.45;;;;;;;16.82;63.57;101729.28;5060895;28;20060;-62
2022/07/05 00:22:58;;;;;;;4.72;1.25;;;;;;;16.75;63.89;101726.19;5070716;28;20056;-61
2022/07/05 00:25:25;;;;;;;4.85;1.50;;;;;;;16.98;63.53;101723.22;5061528;28;20049;-62
2022/07/05 00:27:55;;;;;;;5.82;1.45;;;;;;;17.03;63.28;101735.00;5076808;28;20052;-61
2022/07/05 00:30:23;;;;;;;6.60;1.50;;;;;;;16.81;63.96;101730.47;5074931;28;20405;-62
2022/07/05 00:32:50;;;;;;;8.07;1.27;;;;;;;16.68;64.65;101725.09;5074920;28;20052;-61
2022/07/05 00:35:18;;;;;;;4.95;1.60;;;;;;;16.53;65.33;101731.16;5056547;28;20056;-62
2022/07/05 00:37:45;;;;;;;4.22;1.35;;;;;;;16.61;65.34;101731.16;5057330;28;20056;-62
2022/07/05 00:40:12;;;;;;;5.35;1.38;;;;;;;16.58;65.36;101736.56;5062651;28;20419;-61
2022/07/05 00:42:40;;;;;;;4.15;1.38;;;;;;;16.27;66.77;101733.09;5057798;28;20068;-62
2022/07/05 00:45:08;;;;;;;3.00;1.33;;;;;;;16.11;67.53;101723.63;5081947;28;20053;-61
2022/07/05 00:47:35;;;;;;;6.35;1.50;;;;;;;16.04;68.03;101729.63;5054492;28;20041;-62
2022/07/05 00:50:03;;;;;;;8.30;1.20;;;;;;;16.02;68.17;101736.69;5070062;28;20508;-61
2022/07/05 00:52:31;;;;;;;3.45;1.17;;;;;;;16.36;67.09;101740.28;5053583;28;20496;-62
2022/07/05 00:54:58;;;;;;;7.30;1.13;;;;;;;16.23;66.99;101730.13;5084825;28;20067;-63
2022/07/05 00:57:26;;;;;;;3.92;1.40;;;;;;;15.95;68.17;101733.56;5074562;28;20064;-62
2022/07/05 00:59:53;;;;;;;7.72;1.45;;;;;;;15.89;68.45;101735.69;5057088;28;20523;-61
2022/07/05 01:02:23;;;;;;;9.30;1.45;;;;;;;16.03;68.12;101735.53;5056759;28;20063;-62
2022/07/05 01:04:51;;;;;;;4.07;1.30;;;;;;;15.80;68.45;101737.63;5056540;28;20106;-61
2022/07/05 01:07:20;;;;;;;6.72;2.10;;;;;;;15.91;67.74;101740.91;5035400;28;20053;-62
2022/07/05 01:09:48;;;;;;;2.75;1.30;;;;;;;15.66;68.58;101734.16;5064104;28;20056;-61
2022/07/05 01:12:16;;;;;;;3.88;1.50;;;;;;;15.54;69.08;101739.50;5070025;28;20064;-61
2022/07/05 01:14:44;;;;;;;5.20;1.58;;;;;;;15.49;69.12;101737.69;5048475;28;20393;-62
2022/07/05 01:17:13;;;;;;;6.10;1.48;;;;;;;15.49;68.89;101729.38;5060808;28;20052;-62
2022/07/05 01:19:40;;;;;;;4.88;1.20;;;;;;;15.56;69.15;101732.50;5077424;28;20060;-61
2022/07/05 01:22:16;;;;;;;3.88;1.15;;;;;;;15.44;68.90;101735.06;5072166;28;20060;-61
2022/07/05 01:24:44;;;;;;;4.05;1.33;;;;;;;15.64;68.81;101722.53;5036205;28;20061;-61
2022/07/05 01:27:12;;;;;;;4.38;1.17;;;;;;;15.62;68.33;101724.84;5035077;28;20051;-61
2022/07/05 01:29:41;;;;;;;10.80;1.40;;;;;;;15.59;68.51;101731.84;5057941;28;20122;-61
2022/07/05 01:32:09;;;;;;;4.18;1.10;;;;;;;15.69;67.91;101725.19;5045930;28;20052;-62
2022/07/05 01:34:38;;;;;;;5.75;1.60;;;;;;;15.44;69.19;101720.38;5086392;28;20060;-62
2022/07/05 01:37:06;;;;;;;4.88;1.58;;;;;;;15.85;67.94;101720.78;5048785;28;20052;-62
2022/07/05 01:39:34;;;;;;;3.30;1.17;;;;;;;15.45;68.83;101728.38;5091987;28;20052;-62
2022/07/05 01:42:02;;;;;;;8.63;1.30;;;;;;;15.24;69.72;101740.31;5064623;28;20044;-63
2022/07/05 01:44:30;;;;;;;5.43;1.65;;;;;;;15.27;69.82;101734.94;5061662;28;20456;-62
2022/07/05 01:47:03;;;;;;;4.22;1.27;;;;;;;15.35;69.83;101728.63;5074072;28;20055;-61
2022/07/05 01:49:35;;;;;;;4.28;1.25;;;;;;;15.35;69.64;101731.41;5083307;28;20051;-61
2022/07/05 01:52:09;;;;;;;7.82;1.40;;;;;;;15.08;70.47;101728.03;5039028;28;20053;-61
2022/07/05 01:54:36;;;;;;;8.65;1.30;;;;;;;15.20;70.43;101733.78;5053862;28;20056;-61
2022/07/05 01:57:05;;;;;;;5.13;1.42;;;;;;;15.36;69.79;101719.16;5061786;28;20052;-61
2022/07/05 01:59:34;;;;;;;6.13;1.20;;;;;;;15.52;69.29;101727.91;5065968;28;20048;-61
2022/07/05 02:02:03;;;;;;;8.70;1.50;;;;;;;15.38;69.87;101727.16;5066450;28;20063;-61
2022/07/05 02:04:33;;;;;;;4.80;1.20;;;;;;;15.15;70.73;101731.16;5060025;28;20056;-61
2022/07/05 02:07:06;;;;;;;6.50;1.17;;;;;;;15.13;71.45;101725.13;5041390;28;20052;-61
2022/07/05 02:09:34;;;;;;;9.07;1.30;;;;;;;14.81;72.88;101737.34;5047327;28;20041;-61
2022/07/05 02:12:03;;;;;;;8.88;1.60;;;;;;;14.84;72.94;101728.38;5043551;28;20459;-61
2022/07/05 02:14:31;;;;;;;5.87;1.67;;;;;;;15.07;72.61;101727.19;5051466;28;20049;-61
2022/07/05 02:17:00;;;;;;;;;;;;;;;14.79;73.80;101727.69;5058695;28;20056;-61
2022/07/05 02:19:29;;;;;;;6.30;1.25;;;;;;;14.74;74.44;101722.25;5033979;28;19920;-62
2022/07/05 02:21:57;;;;;;;5.35;1.55;;;;;;;14.79;74.50;101725.72;5042289;28;20518;-61
2022/07/05 02:24:24;;;;;;;7.10;1.55;;;;;;;15.00;73.91;101726.00;5058127;28;20476;-61
2022/07/05 02:27:21;;;;;;;8.77;1.85;;;;;;;14.83;75.25;101729.53;5070148;28;20415;-62
2022/07/05 02:29:50;;;;;;;9.90;1.50;;;;;;;14.77;75.73;101728.00;5029857;28;20044;-61
2022/07/05 02:32:22;;;;;;;8.45;1.98;;;;;;;14.75;75.90;101721.94;5046739;28;20052;-60
2022/07/05 02:34:50;;;;;;;9.35;2.33;;;;;;;14.75;75.97;101730.25;5041718;28;20077;-60
2022/07/05 02:37:17;;;;;;;7.55;1.60;;;;;;;14.75;75.83;101727.50;5054269;28;20060;-61
2022/07/05 02:39:45;;;;;;;6.22;1.40;;;;;;;14.70;75.86;101737.94;5072461;28;20492;-60
2022/07/05 02:42:14;;;;;;;10.50;1.90;;;;;;;14.50;77.35;101726.22;5073039;28;20527;-61
2022/07/05 02:44:42;;;;;;;9.57;1.98;;;;;;;14.60;77.35;101722.34;5051454;28;20049;-61
2022/07/05 02:47:11;;;;;;;7.22;1.70;;;;;;;14.59;77.19;101723.50;5056858;28;20048;-61
2022/07/05 02:49:39;;;;;;;13.20;2.10;;;;;;;14.56;77.62;101715.78;5050587;28;20049;-61
2022/07/05 02:52:07;;;;;;;12.98;1.75;;;;;;;14.46;78.77;101722.41;5054339;28;20056;-61
2022/07/05 02:54:35;;;;;;;13.50;2.10;;;;;;;14.49;78.38;101719.00;5066484;28;20056;-61
2022/07/05 02:57:04;;;;;;;10.98;2.42;;;;;;;14.49;78.47;101718.19;5038550;28;20060;-61
2022/07/05 02:59:32;;;;;;;10.95;2.08;;;;;;;14.72;78.17;101725.38;5071935;28;20060;-62
2022/07/05 03:01:59;;;;;;;9.88;2.00;;;;;;;14.60;78.65;101722.34;5021982;28;20497;-61
2022/07/05 03:04:27;;;;;;;9.20;2.17;;;;;;;14.42;78.77;101715.84;5049460;28;20044;-61
2022/07/05 03:06:57;;;;;;;13.35;2.50;;;;;;;14.38;80.49;101728.69;5057525;28;20059;-61
2022/07/05 03:09:28;;;;;;;11.25;2.50;;;;;;;14.10;81.64;101729.09;5059202;28;20056;-61
2022/07/05 03:11:57;;;;;;;9.82;2.13;;;;;;;14.12;81.66;101727.63;5058620;28;20064;-62
2022/07/05 03:14:25;;;;;;;10.45;2.70;;;;;;;14.26;81.30;101724.88;5044789;28;20060;-61
2022/07/05 03:16:52;;;;;;;13.70;2.75;;;;;;;14.28;81.52;101719.81;5054506;28;20053;-61
2022/07/05 03:19:21;;;;;;;12.15;2.85;;;;;;;14.24;81.55;101724.34;5052047;28;20056;-61
2022/07/05 03:21:49;;;;;;;14.07;2.67;;;;;;;14.25;81.49;101724.00;5034498;28;20056;-61
2022/07/05 03:24:17;;;;;;;13.13;3.28;;;;;;;14.34;81.32;101724.13;5050096;28;20067;-61
2022/07/05 03:26:44;;;;;;;13.27;2.45;;;;;;;14.25;81.43;101732.31;5058446;28;20059;-61
2022/07/05 03:29:11;;;;;;;9.30;2.38;;;;;;;14.04;82.83;101730.34;5058287;28;20056;-61
2022/07/05 03:31:40;;;;;;;13.07;2.22;;;;;;;13.94;83.50;101733.34;5065708;28;20056;-61
2022/07/05 03:34:08;;;;;;;8.77;2.28;;;;;;;13.92;84.03;101727.28;5078260;28;20048;-61
2022/07/05 03:36:35;;;;;;;11.85;2.70;;;;;;;14.18;83.02;101737.47;5077733;28;20415;-61
2022/07/05 03:39:07;;;;;;;12.27;2.78;;;;;;;14.36;81.82;101735.72;5062385;28;20052;-62
2022/07/05 03:41:35;;;;;;;9.85;2.70;;;;;;;14.32;82.03;101738.28;5062834;28;20060;-61
2022/07/05 03:44:05;;;;;;;11.27;2.55;;;;;;;14.45;80.98;101747.69;5047273;28;20407;-62
2022/07/05 03:46:34;;;;;;;13.63;2.88;;;;;;;14.15;83.18;101743.66;5051068;28;20057;-61
2022/07/05 03:49:01;;;;;;;10.52;2.42;;;;;;;14.15;83.70;101740.88;5049377;28;20053;-62
2022/07/05 03:51:29;;;;;;;9.82;2.42;;;;;;;14.37;82.63;101751.19;5057303;28;20060;-61
2022/07/05 03:53:57;;;;;;;11.27;2.67;;;;;;;14.47;81.83;101751.78;5041573;28;20063;-61
2022/07/05 03:56:25;;;;;;;10.38;2.53;;;;;;;14.53;81.31;101758.84;5073127;28;20053;-61
2022/07/05 03:58:58;;;;;;;11.85;3.22;;;;;;;14.52;81.19;101759.16;5041980;28;20045;-61
2022/07/05 04:01:26;;;;;;;14.23;2.83;;;;;;;14.35;82.29;101759.00;5024911;28;20061;-61
2022/07/05 04:03:57;;;;;;;8.43;2.65;;;;;;;14.49;81.60;101765.31;5035068;28;20053;-61
2022/07/05 04:06:27;;;;;;;11.13;3.35;;;;;;;14.14;83.42;101763.38;5044178;28;20532;-61
2022/07/05 04:08:55;;;;;;;15.27;3.13;;;;;;;14.22;83.53;101766.22;5070591;28;20067;-61
2022/07/05 04:11:22;;;;;;;12.98;3.72;;;;;;;14.27;83.86;101765.28;5032716;28;20048;-61
2022/07/05 04:13:52;;;;;;;11.90;3.40;;;;;;;14.21;83.85;101763.75;5051114;28;20609;-62
2022/07/05 04:16:20;;;;;;;10.68;3.20;;;;;;;14.23;84.49;101762.31;5080173;28;20056;-62
2022/07/05 04:18:47;;;;;;;15.77;4.00;;;;;;;14.49;82.95;101765.31;5057201;28;20052;-62
2022/07/05 04:21:15;;;;;;;12.85;3.60;;;;;;;14.58;82.38;101764.25;5040498;28;20048;-61
2022/07/05 04:23:43;;;;;;;11.57;3.38;;;;;;;15.02;80.45;101774.50;5004842;28;20631;-61
2022/07/05 04:26:11;;;;;;;13.13;3.45;;;;;;;14.94;80.75;101777.25;5086528;28;20059;-61
2022/07/05 04:28:43;;;;;;;14.02;3.30;;;;;;;15.17;79.48;101778.81;5037114;28;20072;-60
2022/07/05 04:31:14;;;;;;;11.60;3.22;;;;;;;14.88;79.83;101787.63;5051786;28;20138;-61
2022/07/05 04:33:45;;;;;;;21.55;3.40;;;;;;;14.73;81.48;101776.94;5065653;28;20048;-61
2022/07/05 04:36:17;;;;;;;12.43;3.67;;;;;;;15.07;79.78;101779.94;5056222;28;20048;-61
2022/07/05 04:38:45;;;;;;;14.40;3.35;;;;;;;14.99;79.98;101774.31;5077276;28;20708;-61
2022/07/05 04:41:13;;;;;;;14.27;3.78;;;;;;;14.83;80.68;101782.22;5057070;28;20052;-61
2022/07/05 04:43:40;;;;;;;10.00;3.45;;;;;;;14.84;81.08;101781.06;5053958;28;20528;-61
2022/07/05 04:46:11;;;;;;;15.60;3.92;;;;;;;14.79;81.53;101783.97;5049320;28;20053;-61
2022/07/05 04:48:39;;;;;;;14.35;4.05;;;;;;;15.03;80.90;101792.00;5065285;28;20053;-61
2022/07/05 04:51:08;;;;;;;12.33;3.70;;;;;;;14.79;81.67;101783.16;5047942;28;20049;-61
2022/07/05 04:53:36;;;;;;;17.00;3.80;;;;;;;14.79;82.45;101785.94;5021667;28;20309;-61
2022/07/05 04:56:05;;;;;;;13.30;3.90;;;;;;;14.82;82.19;101780.56;5034689;28;20049;-61
2022/07/05 04:58:32;;;;;;;13.20;3.88;;;;;;;14.80;82.47;101782.88;5034584;28;20061;-61
2022/07/05 05:01:00;;;;;;;12.55;3.80;;;;;;;14.90;82.26;101785.38;5065487;28;20060;-61
2022/07/05 05:03:27;;;;;;;12.18;3.58;;;;;;;14.86;82.40;101792.69;5034786;28;20061;-61
2022/07/05 05:05:55;;;;;;;12.65;4.07;;;;;;;14.66;83.24;101790.44;5022171;28;20060;-61
2022/07/05 05:08:22;;;;;;;13.60;4.00;;;;;;;14.73;83.72;101782.47;5031930;28;20049;-62
2022/07/05 05:10:49;;;;;;;18.35;4.70;;;;;;;14.58;83.98;101791.16;5021415;28;20045;-61
2022/07/05 05:13:17;;;;;;;11.88;4.47;;;;;;;14.57;84.39;101787.56;5034176;28;20060;-61
2022/07/05 05:15:44;;;;;;;13.85;4.57;;;;;;;14.50;84.94;101797.47;5066268;28;20050;-61
2022/07/05 05:18:11;;;;;;;17.17;5.05;;;;;;;14.48;86.11;101785.88;5032347;28;20062;-62
2022/07/05 05:20:39;;;;;;;13.70;4.35;;;;;;;14.52;85.47;101798.78;5034209;28;20140;-61
2022/07/05 05:23:07;;;;;;;14.82;4.50;;;;;;;14.32;87.11;101798.44;5022451;28;20058;-61
2022/07/05 05:25:35;;;;;;;17.05;4.57;;;;;;;14.57;86.06;101797.84;5021150;28;20054;-61
2022/07/05 05:28:03;;;;;;;14.23;4.25;;;;;;;14.64;85.61;101795.47;5025760;28;20041;-61
2022/07/05 05:30:30;;;;;;;14.20;4.18;;;;;;;14.99;84.30;101799.28;5033128;28;20512;-61
2022/07/05 05:32:57;;;;;;;15.25;4.25;;;;;;;15.01;83.47;101800.59;5034235;28;20068;-61
2022/07/05 05:35:25;;;;;;;14.60;3.92;;;;;;;15.01;83.73;101805.34;5027096;28;20062;-62
2022/07/05 05:37:54;;;;;;;19.67;4.38;;;;;;;14.98;83.38;101803.19;5026717;28;20053;-61
2022/07/05 05:40:23;;;;;;;15.57;4.43;;;;;;;15.20;83.07;101800.41;5038143;28;20049;-61
2022/07/05 05:42:51;;;;;;;17.60;5.03;;;;;;;15.01;82.81;101811.69;5057124;28;20061;-60
2022/07/05 05:45:20;;;;;;;17.13;5.20;;;;;;;15.10;83.18;101815.34;5062501;28;20057;-60
2022/07/05 05:47:54;;;;;;;15.38;4.22;;;;;;;15.37;82.12;101815.22;5064744;28;20500;-61
2022/07/05 05:50:26;;;;;;;16.60;5.15;;;;;;;15.03;82.83;101812.22;5035225;28;20037;-62
2022/07/05 05:52:54;;;;;;;20.20;5.97;;;;;;;14.96;83.30;101828.47;5044602;28;20049;-61
2022/07/05 05:55:23;;;;;;;14.65;5.22;;;;;;;15.18;82.94;101831.25;5044380;28;20053;-61
2022/07/05 05:57:50;;;;;;;14.60;4.50;;;;;;;15.28;82.37;101830.16;5058126;28;20049;-62
2022/07/05 06:00:19;;;;;;;16.17;5.10;;;;;;;15.41;81.29;101830.09;5057946;28;20045;-61
2022/07/05 06:02:47;;;;;;;17.77;4.60;;;;;;;15.72;80.77;101839.25;5058091;28;20064;-60
2022/07/05 06:05:15;;;;;;;18.35;4.65;;;;;;;15.68;79.74;101832.69;5057819;28;20049;-61
2022/07/05 06:07:53;;;;;;;16.08;5.40;;;;;;;15.17;81.85;101834.31;5038777;28;20053;-62
2022/07/05 06:10:22;;;;;;;15.52;4.80;;;;;;;15.16;82.36;101825.19;5043181;28;20056;-61
2022/07/05 06:12:51;;;;;;;17.83;4.72;;;;;;;15.23;82.38;101830.28;5057174;28;20053;-61
2022/07/05 06:15:19;;;;;;;17.90;5.45;;;;;;;15.48;82.07;101822.13;5053147;28;20064;-62
2022/07/05 06:17:47;;;;;;;15.75;5.32;;;;;;;15.61;80.20;101829.56;5048696;28;20061;-62
2022/07/05 06:20:20;;;;;;;13.65;4.88;;;;;;;15.63;80.19;101826.47;5090415;28;20044;-62
2022/07/05 06:22:48;;;;;;;15.05;5.13;;;;;;;15.56;80.20;101821.38;5054830;28;20044;-62
2022/07/05 06:25:16;;;;;;;11.90;4.93;;;;;;;15.37;81.31;101831.88;5056089;28;20049;-61
2022/07/05 06:27:54;;;;;;;19.10;5.63;;;;;;;15.60;80.75;101827.09;5056767;28;20404;-61
2022/07/05 06:30:24;;;;;;;14.27;5.32;;;;;;;16.19;79.00;101828.44;5049153;28;20413;-62
2022/07/05 06:32:51;;;;;;;12.90;4.53;;;;;;;16.53;76.68;101825.72;5057186;28;20415;-61
2022/07/05 06:35:19;;;;;;;12.90;4.78;;;;;;;16.47;75.76;101829.81;5055162;28;20127;-61
2022/07/05 06:37:54;;;;;;;13.70;5.07;;;;;;;15.94;78.42;101834.72;5055014;28;20052;-61
2022/07/05 06:40:25;;;;;;;16.48;5.55;;;;;;;15.81;78.22;101844.84;5055781;28;20048;-60
2022/07/05 06:42:54;;;;;;;13.70;5.10;;;;;;;15.64;80.27;101842.78;5055221;28;20441;-61
2022/07/05 06:45:25;;;;;;;11.70;5.88;;;;;;;15.48;80.51;101838.00;5050498;28;20132;-60
2022/07/05 06:48:03;;;;;;;16.63;5.47;;;;;;;15.76;79.91;101840.22;5063707;28;20056;-60
2022/07/05 06:50:35;;;;;;;19.00;5.38;;;;;;;15.89;78.95;101848.78;5047256;28;20063;-61
2022/07/05 06:53:04;;;;;;;14.75;4.95;;;;;;;16.33;77.40;101838.28;5076864;28;20060;-60
2022/07/05 06:55:32;;;;;;;14.63;4.78;;;;;;;16.42;76.79;101852.19;5076843;28;20058;-60
2022/07/05 06:58:01;;;;;;;11.57;5.07;;;;;;;16.24;76.50;101836.63;5076763;28;20075;-60
2022/07/05 07:00:44;;;;;;;13.77;5.20;;;;;;;16.52;76.25;101844.38;5095193;28;20085;-62
2022/07/05 07:03:31;;;;;;;14.65;4.40;;;;;;;16.66;74.50;101845.06;5078616;28;20526;-60
2022/07/05 07:06:19;;;;;;;11.38;4.47;;;;;;;16.88;74.56;101836.53;5070917;28;20048;-61
2022/07/05 07:11:33;;;;;;;13.35;4.70;;;;;;;16.46;74.91;101830.91;5065455;28;20047;-60
2022/07/05 07:14:01;;;;;;;9.88;4.43;;;;;;;16.59;75.51;101841.94;5067897;28;20040;-60
2022/07/05 07:16:28;;;;;;;14.82;4.28;;;;;;;17.02;73.67;101835.50;5092620;28;20395;-60
2022/07/05 07:18:56;;;;;;;13.98;4.75;;;;;;;16.65;74.20;101843.41;5049356;28;20468;-60
2022/07/05 07:21:41;;;;;;;13.88;4.72;;;;;;;16.43;75.70;101837.13;5056650;28;20045;-60
2022/07/05 07:24:09;;;;;;;16.95;4.55;;;;;;;16.58;74.98;101840.28;5065194;28;20065;-60
2022/07/05 07:29:23;;;;;;;14.65;3.60;;;;;;;17.84;72.16;101845.16;5066430;28;20533;-60
2022/07/05 07:31:50;;;;;;;11.52;4.13;;;;;;;18.47;69.10;101834.97;5082590;28;20044;-60
2022/07/05 07:34:17;;;;;;;11.93;3.58;;;;;;;19.08;67.25;101842.47;5079339;28;20059;-61
2022/07/05 07:36:45;;;;;;;12.73;3.50;;;;;;;19.24;63.84;101837.06;5080953;28;20059;-61
2022/07/05 07:39:12;;;;;;;13.20;4.10;;;;;;;18.83;64.05;101840.72;5079369;28;20052;-61
2022/07/05 07:41:39;;;;;;;9.57;3.75;;;;;;;18.38;65.30;101848.94;5074992;28;20056;-62
2022/07/05 07:44:06;;;;;;;12.30;3.63;;;;;;;18.77;65.90;101850.50;5082371;28;20044;-62
2022/07/05 07:46:34;;;;;;;13.55;4.90;;;;;;;18.46;64.96;101848.09;5078079;28;20048;-60
2022/07/05 07:49:02;;;;;;;14.05;4.15;;;;;;;19.39;64.17;101842.84;5063078;28;20049;-61
2022/07/05 07:51:29;;;;;;;9.43;3.50;;;;;;;19.77;61.32;101850.97;5090041;28;20056;-60
2022/07/05 07:53:57;;;;;;;12.10;3.95;;;;;;;19.90;61.11;101855.38;5087967;28;20067;-60
2022/07/05 07:56:38;;;;;;;19.90;3.83;;;;;;;20.41;58.83;101848.28;5065651;28;20044;-60
2022/07/05 07:59:05;;;;;;;14.00;3.60;;;;;;;20.53;58.21;101848.25;5079329;28;20048;-61
2022/07/05 08:01:33;;;;;;;13.02;3.22;;;;;;;20.27;58.76;101857.06;5064546;28;20058;-61
2022/07/05 08:04:06;;;;;;;13.60;3.40;;;;;;;19.71;60.40;101850.38;5061791;28;20192;-61
2022/07/05 08:06:33;;;;;;;14.63;3.25;;;;;;;20.00;59.36;101850.16;5061265;28;20048;-61
2022/07/05 08:09:00;;;;;;;12.05;3.15;;;;;;;20.53;57.82;101846.28;5077951;28;20055;-61
2022/07/05 08:11:28;;;;;;;9.52;3.05;;;;;;;21.11;56.10;101842.84;5082416;28;20052;-60
2022/07/05 08:13:56;;;;;;;9.80;3.25;;;;;;;21.04;55.13;101841.84;5065130;28;20554;-60
2022/07/05 08:16:23;;;;;;;12.18;3.42;;;;;;;20.44;57.07;101841.97;5044258;28;20052;-61
2022/07/05 08:21:39;;;;;;;9.57;3.40;;;;;;;20.92;56.33;101841.88;5057780;28;20063;-60
2022/07/05 08:24:09;;;;;;;10.63;2.72;;;;;;;21.53;54.68;101834.78;5076422;28;20495;-61
2022/07/05 08:26:36;;;;;;;15.43;3.80;;;;;;;21.62;53.84;101837.44;5060236;28;20053;-61
2022/07/05 08:29:07;;;;;;;15.45;3.70;;;;;;;21.75;53.47;101839.78;5078537;28;20056;-60
2022/07/05 08:31:45;;;;;;;11.23;3.40;;;;;;;21.60;53.01;101832.16;5070220;28;20064;-61
2022/07/05 08:34:13;;;;;;;14.85;3.42;;;;;;;20.50;56.82;101832.19;5063980;28;20056;-61
2022/07/05 08:36:41;;;;;;;11.98;3.38;;;;;;;20.25;56.79;101834.22;5043381;28;20071;-66
2022/07/05 08:39:09;;;;;;;7.95;2.72;;;;;;;19.72;57.58;101832.41;5076820;28;20052;-60
2022/07/05 08:41:39;;;;;;;12.35;2.92;;;;;;;19.90;57.39;101833.84;5080033;28;20051;-61
2022/07/05 08:44:07;;;;;;;;;;;;;;;20.44;55.96;101827.97;5079607;28;20055;-65
2022/07/05 08:46:38;;;;;;;10.63;2.85;;;;;;;20.17;57.30;101826.75;5077003;28;19927;-61
2022/07/05 08:49:06;;;;;;;13.30;3.00;;;;;;;20.34;56.97;101825.69;5073356;28;20459;-60
2022/07/05 08:51:40;;;;;;;14.43;2.78;;;;;;;20.14;55.92;101833.00;5067124;28;20061;-61
2022/07/05 08:54:11;;;;;;;11.25;2.30;;;;;;;20.64;55.53;101824.22;5063075;28;20079;-61
2022/07/05 08:56:45;;;;;;;35.63;5.32;;;;;;;20.80;54.24;101833.50;5078665;28;20049;-65
2022/07/05 08:59:38;;;;;;;15.88;3.88;;;;;;;20.48;54.85;101826.94;5074797;28;20052;-61
2022/07/05 09:02:08;;;;;;;16.45;3.30;;;;;;;20.96;54.60;101821.16;5072598;28;20360;-61
2022/07/05 09:04:37;;;;;;;10.75;2.45;;;;;;;21.37;52.81;101822.75;5044325;28;20052;-60
2022/07/05 09:07:07;;;;;;;8.40;2.23;;;;;;;20.85;51.38;101824.84;5054455;28;20048;-60
2022/07/05 09:09:42;;;;;;;7.07;2.53;;;;;;;21.18;51.35;101825.44;5080699;28;20048;-61
2022/07/05 09:12:14;;;;;;;10.00;2.15;;;;;;;21.31;51.25;101818.56;5065673;28;20052;-60
2022/07/05 09:14:56;;;;;;;11.65;1.98;;;;;;;20.90;51.32;101822.59;5075118;28;20052;-61
2022/07/05 09:17:26;;;;;;;11.32;2.67;;;;;;;20.99;50.89;101822.50;5081385;28;20071;-63
2022/07/05 09:20:20;;;;;;;10.90;2.30;;;;;;;20.33;52.81;101830.44;5078378;28;20056;-61
2022/07/05 09:22:55;;;;;;;15.57;3.08;;;;;;;20.35;52.60;101821.69;5081607;28;20384;-61
2022/07/05 09:25:24;;;;;;;7.55;2.17;;;;;;;20.58;52.11;101825.63;5079235;28;20044;-61
2022/07/05 09:27:55;;;;;;;6.80;2.22;;;;;;;20.01;53.43;101828.59;5082556;28;20526;-61
2022/07/05 09:30:33;;;;;;;10.63;2.20;;;;;;;19.93;54.23;101827.53;5076089;28;20067;-61
2022/07/05 09:33:12;;;;;;;7.32;2.28;;;;;;;20.28;53.47;101827.91;5069663;28;20388;-61
2022/07/05 09:35:52;;;;;;;15.00;2.40;;;;;;;20.36;53.83;101823.34;5079914;28;20519;-61
2022/07/05 09:38:28;;;;;;;12.10;2.70;;;;;;;20.15;54.54;101823.47;5060244;28;20059;-61
2022/07/05 09:41:00;;;;;;;9.68;2.90;;;;;;;20.19;55.05;101824.41;5079283;28;20055;-62
2022/07/05 09:43:28;;;;;;;9.82;2.40;;;;;;;20.49;54.37;101813.75;5078989;28;20479;-61
2022/07/05 09:45:58;;;;;;;9.32;3.38;;;;;;;21.06;52.79;101809.47;5082524;28;20055;-61
2022/07/05 09:48:27;;;;;;;10.63;2.80;;;;;;;21.15;52.46;101814.91;5082156;28;20056;-62
2022/07/05 09:51:12;;;;;;;7.75;3.50;;;;;;;20.90;52.01;101822.59;5080227;28;20056;-67
2022/07/05 09:54:00;;;;;;;13.50;2.97;;;;;;;20.77;52.46;101820.19;5077285;28;20056;-61
2022/07/05 09:56:43;;;;;;;8.20;2.40;;;;;;;20.80;51.86;101827.91;5083180;28;20115;-61
2022/07/05 09:59:19;;;;;;;11.57;3.05;;;;;;;20.86;51.55;101829.25;5037145;28;20881;-60
2022/07/05 10:01:48;;;;;;;8.25;2.70;;;;;;;21.10;51.47;101826.38;5055352;28;20044;-59
2022/07/05 10:04:16;;;;;;;11.65;2.30;;;;;;;21.66;49.85;101827.94;5062819;28;20044;-62
2022/07/05 10:06:44;;;;;;;8.93;2.80;;;;;;;21.39;49.97;101819.59;5067506;28;20040;-62
2022/07/05 10:09:11;;;;;;;7.68;2.67;;;;;;;21.03;50.79;101821.41;5052699;28;20057;-61
2022/07/05 10:11:43;;;;;;;7.60;2.53;;;;;;;20.81;50.77;101826.72;5073513;28;20059;-62
2022/07/05 10:14:21;;;;;;;9.93;2.38;;;;;;;21.00;51.09;101824.09;5070512;28;20079;-62
2022/07/05 10:16:57;;;;;;;6.85;2.08;;;;;;;20.90;50.78;101824.59;5069280;28;20411;-60
2022/07/05 10:19:29;;;;;;;8.60;2.70;;;;;;;20.84;50.59;101820.41;5045580;28;20052;-62
2022/07/05 10:21:56;;;;;;;10.18;2.60;;;;;;;21.24;50.00;101818.38;5082546;28;20061;-62
2022/07/05 10:24:44;;;;;;;7.65;2.80;;;;;;;21.34;48.79;101826.25;5077375;28;20052;-62
2022/07/05 10:27:13;;;;;;;7.95;2.40;;;;;;;21.47;49.29;101827.00;5084348;28;20412;-63
2022/07/05 10:29:41;;;;;;;5.82;2.35;;;;;;;21.86;47.26;101832.47;5069153;28;20825;-62
2022/07/05 10:32:11;;;;;;;7.55;2.83;;;;;;;21.62;47.56;101824.19;5065649;28;20536;-62
2022/07/05 10:34:39;;;;;;;11.32;2.83;;;;;;;21.65;47.80;101825.47;5079351;28;20052;-64
2022/07/05 10:37:27;;;;;;;8.75;2.50;;;;;;;21.16;48.92;101820.19;5060936;28;20048;-63
2022/07/05 10:39:56;;;;;;;10.13;2.72;;;;;;;21.49;49.29;101822.69;5059162;28;20052;-63
2022/07/05 10:42:25;;;;;;;9.60;4.15;;;;;;;21.17;49.95;101816.19;5066819;28;20063;-63
2022/07/05 10:44:52;;;;;;;12.18;3.40;;;;;;;21.55;49.39;101815.59;5063379;28;20407;-62
2022/07/05 10:47:20;;;;;;;11.07;3.50;;;;;;;21.96;47.73;101801.06;5072894;28;20045;-62
2022/07/05 10:50:02;;;;;;;8.65;3.47;;;;;;;22.01;47.13;101805.59;5070090;28;20056;-64
2022/07/05 10:52:30;;;;;;;8.68;2.95;;;;;;;22.16;46.60;101807.53;5070361;28;20053;-63
2022/07/05 10:55:16;;;;;;;6.25;3.30;;;;;;;21.54;46.01;101805.59;5085550;28;20048;-63
2022/07/05 10:57:44;;;;;;;15.00;3.30;;;;;;;21.56;45.80;101799.59;5056948;28;20044;-63
2022/07/05 11:00:12;;;;;;;12.88;4.32;;;;;;;21.64;46.36;101798.59;5068137;28;20057;-63
2022/07/05 11:02:39;;;;;;;9.35;3.63;;;;;;;21.71;46.83;101796.81;5066791;28;20048;-62
2022/07/05 11:05:07;;;;;;;8.73;2.60;;;;;;;22.16;46.42;101799.13;5081525;28;20088;-64
2022/07/05 11:08:00;;;;;;;5.20;2.40;;;;;;;22.12;45.75;101799.03;5063858;28;20055;-63
2022/07/05 11:10:27;;;;;;;9.55;3.58;;;;;;;21.93;47.05;101804.59;5042926;28;20056;-64
2022/07/05 11:12:54;;;;;;;8.77;2.70;;;;;;;22.08;46.16;101794.53;5058670;28;20047;-64
2022/07/05 11:15:22;;;;;;;4.65;2.25;;;;;;;22.09;46.10;101788.53;5057371;28;20059;-62
2022/07/05 11:17:49;;;;;;;6.53;2.75;;;;;;;22.15;45.58;101787.09;5057330;28;20076;-62
2022/07/05 11:20:32;;;;;;;9.68;3.22;;;;;;;22.03;45.53;101798.44;5061863;28;20061;-62
2022/07/05 11:23:11;;;;;;;13.75;3.03;;;;;;;22.16;45.16;101802.75;5077088;28;20430;-62
2022/07/05 11:25:41;;;;;;;6.85;2.50;;;;;;;22.45;44.79;101793.00;5087071;28;20049;-63
2022/07/05 11:28:22;;;;;;;7.72;2.38;;;;;;;22.45;43.36;101784.56;5067784;28;20056;-62
2022/07/05 11:30:52;;;;;;;9.07;2.63;;;;;;;22.51;43.26;101788.69;5070532;28;20049;-62
2022/07/05 11:33:27;;;;;;;9.57;2.38;;;;;;;22.53;43.47;101796.75;5054409;28;20043;-63
2022/07/05 11:35:56;;;;;;;6.03;1.95;;;;;;;22.34;43.41;101794.72;5076286;28;20439;-63
2022/07/05 11:38:23;;;;;;;5.38;2.28;;;;;;;22.09;44.18;101787.72;5058440;28;20056;-62
2022/07/05 11:41:14;;;;;;;6.63;2.05;;;;;;;22.12;44.47;101792.63;5067628;28;20528;-63
2022/07/05 11:43:42;;;;;;;5.85;2.05;;;;;;;21.89;45.08;101783.25;5064527;28;20048;-63